Datum max min   Außentemperatur Tagesdurchschnitt Außenfeuchte Tagesdurchschnitt Taupunkt Tagesdurchschnitt Windchill Tagesdurchschnitt Windgeschwindigkeit Tagesdurchschnitt   Mindesttemperatur Höchsttemperatur Höchste Windgeschwindigkeit  Tägliche Niederschlagsmenge 
  °C % °C °C km/h   °C °C km/h mm/m²
 
mittelwert
01.01.1969     1022,1 -5,4           -8,7 -4,4   5,1
02.01.1969     1017,0 0,4           -4,4 1,5   7,4
03.01.1969     1021,9 -3,9           -5,2 1,5   0,1
04.01.1969     1020,6 -4,2           -6,2 -2,9   0,0
05.01.1969     1016,3 -7,3           -9,3 -3,3   0,0
06.01.1969     1013,9 -8,2           -9,1 -6,7   0,0
07.01.1969     1012,6 -7,9           -10,8 -6,8   0,0
08.01.1969     1010,7 -7,6           -9,4 -7,2   0,0
09.01.1969     1016,7 -2,8           -7,4 -1,5   0,3
10.01.1969     1017,8 -5,1           -8,9 -1,0   0,0
11.01.1969     1014,7 -7,2           -10,8 -6,6   0,3
12.01.1969     1006,3 -5,4           -7,0 -3,0   0,0
13.01.1969     995,8 -7,3           -8,0 -5,6   0,0
14.01.1969     988,7 -5,2           -9,4 -3,1   0,0
15.01.1969     989,8 -1,0           -3,6 1,1   0,2
16.01.1969     995,7 -1,2           -3,5 1,3   0,0
17.01.1969     1007,7 -1,6           -4,2 0,6   0,0
18.01.1969     1003,0 0,4           -4,3 1,8   0,8
19.01.1969     1011,1 0,7           0,4 1,7   0,4
20.01.1969     1022,7 -0,1           -1,1 1,6   0,0
21.01.1969     1026,3 -2,4           -4,6 -1,1   0,0
22.01.1969     1021,7 0,5           -2,7 1,4   1,7
23.01.1969     1018,5 1,9           0,6 2,8   0,5
24.01.1969     1023,1 0,4           -0,1 2,0   0,9
25.01.1969     1023,1 1,2           -0,7 1,6   5,7
26.01.1969     1025,8 1,9           1,2 3,8   0,1
27.01.1969     1021,0 0,2           -0,6 1,5   0,0
28.01.1969     1015,8 1,4           0,3 2,4   1,7
29.01.1969     1007,1 1,7           0,5 3,4   2,8
30.01.1969     1011,9 1,3           0,2 1,8   0,1
31.01.1969     1009,5 1,8           0,3 4,0   4,2
01.02.1969     1011,8 0,0           -1,2 0,7   2,2
02.02.1969     1002,6 0,9           -0,3 3,5   2,9
03.02.1969     1007,5 -3,7           -5,0 -0,2   0,3
04.02.1969     1018,1 -3,8           -5,1 -2,1   0,2
05.02.1969     1024,2 -6,1           -8,4 -4,4   0,0
06.02.1969     1017,7 -7,9           -9,7 -6,0   0,0
07.02.1969     1005,8 -5,4           -10,9 -2,9   1,6
08.02.1969     1007,9 -4,5           -7,1 -1,6   0,0
09.02.1969     1017,1 -5,6           -9,0 -4,6   0,4
10.02.1969     1015,5 -6,1           -7,6 -4,8   1,0
11.02.1969     1008,7 -7,0           -7,3 -5,3   0,1
12.02.1969     990,2 -6,2           -10,0 -5,0   3,0
13.02.1969     993,7 -7,1           -9,6 -3,7   3,1
14.02.1969     1002,5 -11,6           -13,4 -9,2   0,1
15.02.1969     996,9 -12,6           -13,3 -12,5   10,9
16.02.1969     996,3 -10,5           -12,9 -7,8   0,1
17.02.1969     1003,9 -7,9           -11,0 -7,0   0,1
18.02.1969     1008,7 -7,1           -10,4 -3,8   0,1
19.02.1969     1001,7 -5,1           -10,1 -4,1   0,0
20.02.1969     1002,2 0,9           -4,6 2,9   0,0
21.02.1969     1008,5 0,6           -1,2 6,0   0,0
22.02.1969     1007,8 0,9           -1,6 4,7   0,0
23.02.1969     1005,1 0,0           -1,2 0,6   0,0
24.02.1969     1002,2 -0,2           -1,8 0,5   1,7
25.02.1969     1004,6 -1,3           -1,6 0,1   0,0
26.02.1969     1009,0 0,8           -1,6 2,0   0,0
27.02.1969     1014,6 0,6           -0,8 5,4   0,0
28.02.1969     1020,3 -2,0           -3,0 -0,7   0,0
01.03.1969     1017,7 -1,2           -3,1 -0,6   0,0
02.03.1969     1016,3 -0,5           -2,1 1,5   0,0
03.03.1969     1017,4 -3,8           -5,3 0,1   0,0
04.03.1969     1019,4 -3,6           -7,9 1,5   0,0
05.03.1969     1019,5 -4,5           -10,0 1,2   0,0
06.03.1969     1017,0 -2,8           -8,9 3,2   0,0
07.03.1969     1014,6 -2,5           -8,7 4,4   0,0
08.03.1969     1017,3 -0,3           -6,8 3,9   0,0
09.03.1969     1015,1 1,2           -2,9 5,7   0,0
10.03.1969     1016,1 -0,1           -4,9 4,8   0,0
11.03.1969     1008,5 3,7           -0,6 6,1   4,2
12.03.1969     1007,9 3,1           -1,2 6,0   13,7
13.03.1969     998,9 5,8           3,1 6,6   6,5
14.03.1969     998,5 5,3           2,0 12,0   1,6
15.03.1969     1000,9 -2,0           -2,8 2,2   10,2
16.03.1969     1004,2 -2,5           -3,7 -1,0   0,0
17.03.1969     1004,5 -3,9           -4,9 -1,5   0,0
18.03.1969     1008,9 -1,5           -4,9 0,6   0,0
19.03.1969     1010,6 -1,5           -3,7 0,1   0,0
20.03.1969     1019,1 -2,4           -3,6 0,8   0,1
21.03.1969     1022,3 -2,0           -7,0 0,4   0,0
22.03.1969     1016,3 -1,2           -4,1 1,3   1,2
23.03.1969     1009,5 -1,2           -2,4 1,8   3,3
24.03.1969     1009,5 -1,0           -2,5 0,1   2,4
25.03.1969     1009,9 -0,5           -1,4 0,3   3,3
26.03.1969     1011,4 -2,1           -2,8 -0,5   0,7
27.03.1969     1013,7 -3,2           -3,8 -1,2   0,6
28.03.1969     1016,9 -1,8           -3,8 -1,1   2,3
29.03.1969     1017,0 -0,6           -1,8 1,1   0,3
30.03.1969     1010,7 0,7           -2,5 2,9   1,9
31.03.1969     1001,8 3,9           0,6 5,1   13,5
01.04.1969     1000,2 2,1           0,5 5,9   6,7
02.04.1969     1015,5 0,4           -1,4 3,0   0,7
03.04.1969     1024,5 0,7           -0,9 4,0   0,4
04.04.1969     1027,5 1,0           -3,6 6,7   0,0
05.04.1969     1025,3 5,8           -1,6 11,6   0,0
06.04.1969     1021,5 8,8           2,9 14,9   0,0
07.04.1969     1019,9 9,4           2,6 17,1   0,0
08.04.1969     1023,1 9,3           2,3 16,4   0,0
09.04.1969     1026,6 8,5           -0,1 16,9   0,0
10.04.1969     1024,7 10,6           -1,1 18,8   0,0
11.04.1969     1017,5 10,3           9,1 12,2   7,3
12.04.1969     1005,9 5,9           1,8 10,8   6,7
13.04.1969     1008,5 0,7           -1,8 6,0   2,6
14.04.1969     1014,2 0,1           -2,9 4,6   0,1
15.04.1969     1010,7 3,0           -2,5 5,2   8,0
16.04.1969     1010,6 1,0           -0,4 6,3   3,9
17.04.1969     1009,7 0,6           -2,1 3,5   3,2
18.04.1969     1011,0 -1,4           -3,7 2,6   1,5
19.04.1969     1011,3 -1,7           -3,8 2,0   0,7
20.04.1969     1010,6 -0,4           -5,5 4,6   0,0
21.04.1969     1005,3 5,7           -3,5 10,9   0,8
22.04.1969     995,0 7,4           5,1 10,7   7,2
23.04.1969     997,3 4,6           3,7 7,3   13,0
24.04.1969     1008,2 5,9           2,3 9,0   2,5
25.04.1969     1015,7 10,4           7,1 13,0   0,8
26.04.1969     1016,5 15,7           6,4 21,9   0,0
27.04.1969     1018,1 10,7           6,9 17,7   4,6
28.04.1969     1014,2 8,8           5,7 13,4   0,2
29.04.1969     1011,0 7,3           6,6 9,8   4,7
30.04.1969     1010,3 5,2           4,3 7,0   2,4
01.05.1969     1009,9 5,9           4,0 6,8   0,3
02.05.1969     1010,9 11,2           5,9 17,6   0,1
03.05.1969     1007,8 14,6           5,4 22,7   2,2
04.05.1969     1009,7 13,5           9,4 16,6   0,4
05.05.1969     1011,8 14,8           9,2 21,0   0,0
06.05.1969     1005,9 16,2           10,3 24,0   18,2
07.05.1969     1007,9 7,9           6,7 15,0   14,9
08.05.1969     1007,0 8,7           6,5 12,6   0,1
09.05.1969     1005,9 9,4           6,0 12,6   12,8
10.05.1969     1014,6 9,0           5,7 13,5   0,2
11.05.1969     1020,3 13,1           7,4 17,9   0,0
12.05.1969     1022,1 16,0           6,2 22,6   0,0
13.05.1969     1018,9 19,1           8,2 26,5   0,0
14.05.1969     1015,4 22,2           14,5 28,2   0,0
15.05.1969     1016,6 16,1           14,3 21,7   0,0
16.05.1969     1014,2 11,1           8,2 16,0   6,1
17.05.1969     1017,9 9,6           6,0 14,3   0,0
18.05.1969     1009,8 9,3           4,9 14,8   1,8
19.05.1969     1010,2 5,4           3,3 8,7   1,3
20.05.1969     1015,4 6,1           2,2 9,7   0,0
21.05.1969     1022,2 6,3           3,8 11,3   0,0
22.05.1969     1022,2 9,1           -0,1 15,0   0,0
23.05.1969     1018,1 9,8           2,5 16,3   0,0
24.05.1969     1014,7 12,4           4,5 18,4   0,0
25.05.1969     1009,9 16,0           7,1 20,9   3,2
26.05.1969     1011,1 9,9           8,2 17,4   4,8
27.05.1969     1015,1 13,1           5,1 17,8   0,0
28.05.1969     1013,4 16,2           8,9 22,3   1,6
29.05.1969     1008,7 11,9           9,9 16,2   0,0
30.05.1969     1009,7 12,0           3,0 16,3   7,4
31.05.1969     1012,2 9,8           7,9 13,2   9,6
01.06.1969     1016,6 10,0           7,9 14,4   6,7
02.06.1969     1018,5 9,0           3,0 13,3   2,1
03.06.1969     1012,6 7,7           6,4 9,5   7,9
04.06.1969     1011,3 5,0           4,2 7,3   2,7
05.06.1969     1013,3 6,8           3,0 7,9   18,6
06.06.1969     1012,9 6,2           5,4 6,9   3,8
07.06.1969     1013,4 12,0           6,4 16,4   1,0
08.06.1969     1019,0 11,5           5,8 17,9   0,0
09.06.1969     1018,5 13,7           7,4 17,8   0,0
10.06.1969     1017,1 13,2           7,0 20,3   0,0
11.06.1969     1014,7 15,7           8,5 22,3   0,0
12.06.1969     1011,5 16,8           9,5 23,9   0,0
13.06.1969     1009,3 17,9           10,5 21,9   0,0
14.06.1969     1009,4 14,7           10,3 23,4   6,3
15.06.1969     1012,1 18,0           10,7 22,7   2,1
16.06.1969     1015,5 17,8           12,8 20,1   0,8
17.06.1969     1008,3 15,6           8,1 25,3   0,0
18.06.1969     1007,8 14,2           11,1 19,3   17,6
19.06.1969     1011,0 12,1           10,2 16,1   31,7
20.06.1969     1012,3 12,2           9,9 18,9   0,7
21.06.1969     1015,4 13,9           7,7 20,8   0,0
22.06.1969     1017,1 16,6           7,0 20,3   0,0
23.06.1969     1010,9 19,2           10,0 23,2   0,0
24.06.1969     1007,8 16,1           13,1 21,7   0,8
25.06.1969     1012,6 10,9           10,0 15,9   4,2
26.06.1969     1018,7 12,1           9,4 14,1   0,6
27.06.1969     1020,7 14,4           9,8 18,9   2,4
28.06.1969     1020,6 9,6           8,6 13,4   3,0
29.06.1969     1022,7 11,4           8,5 14,5   6,1
30.06.1969     1019,3 11,3           8,3 16,1   0,0
01.07.1969     1018,1 14,4           7,5 19,5   0,0
02.07.1969     1018,2 16,2           9,3 21,8   1,0
03.07.1969     1019,9 17,6           10,5 23,9   0,2
04.07.1969     1020,7 17,8           15,0 22,1   0,0
05.07.1969     1017,9 19,0           11,2 23,9   0,0
06.07.1969     1015,3 18,4           13,6 23,9   0,4
07.07.1969     1011,1 13,1           9,6 20,1   1,8
08.07.1969     1015,0 10,7           7,4 15,6   0,3
09.07.1969     1016,3 9,8           7,6 15,3   0,1
10.07.1969     1021,7 10,6           5,6 15,3   0,0
11.07.1969     1021,4 10,2           5,2 14,1   11,2
12.07.1969     1024,3 10,0           8,5 14,8   0,0
13.07.1969     1025,5 13,4           8,1 15,1   0,8
14.07.1969     1027,4 14,0           9,9 19,2   0,0
15.07.1969     1026,9 16,0           8,3 22,2   0,0
16.07.1969     1024,1 20,6           9,6 27,0   0,0
17.07.1969     1022,3 21,0           12,3 27,2   0,0
18.07.1969     1025,3 14,8           12,9 19,6   0,0
19.07.1969     1023,8 17,6           9,0 22,8   0,0
20.07.1969     1020,7 18,8           14,4 23,0   0,0
21.07.1969     1022,1 15,7           13,2 20,2   0,0
22.07.1969     1021,7 19,0           13,8 24,1   0,0
23.07.1969     1021,4 20,9           12,7 27,9   0,0
24.07.1969     1020,2 23,0           15,0 29,3   0,0
25.07.1969     1021,4 19,4           15,9 28,5   16,7
26.07.1969     1021,5 20,8           17,0 26,2   0,0
27.07.1969     1021,4 22,5           15,9 30,0   0,0
28.07.1969     1019,9 22,2           16,1 30,1   0,0
29.07.1969     1014,9 22,0           17,2 29,2   0,0
30.07.1969     1017,0 19,5           13,9 26,1   0,4
31.07.1969     1018,3 17,8           13,7 23,9   0,0
01.08.1969     1017,0 20,0           14,1 26,5   0,0
02.08.1969     1015,9 20,8           12,9 27,3   0,0
03.08.1969     1017,5 19,3           15,0 26,2   0,4
04.08.1969     1021,3 18,8           15,6 25,4   4,2
05.08.1969     1022,6 19,4           12,4 25,5   0,0
06.08.1969     1021,9 19,7           11,4 25,4   0,3
07.08.1969     1021,8 16,7           14,0 20,4   0,1
08.08.1969     1023,0 17,5           9,9 23,5   0,0
09.08.1969     1020,7 17,7           9,6 25,0   0,0
10.08.1969     1018,7 16,0           9,1 22,6   0,0
11.08.1969     1018,2 14,1           8,1 20,3   0,0
12.08.1969     1016,5 14,6           6,1 20,9   0,8
13.08.1969     1015,1 16,3           9,7 23,1   0,0
14.08.1969     1013,1 17,1           9,7 24,1   13,4
15.08.1969     1008,5 16,4           14,5 21,3   10,4
16.08.1969     1009,3 13,8           12,6 16,0   10,1
17.08.1969     1014,5 14,1           11,9 17,1   3,8
18.08.1969     1020,1 15,1           12,3 19,3   0,0
19.08.1969     1020,9 16,4           11,1 21,1   1,0
20.08.1969     1014,5 14,5           9,6 20,9   18,3
21.08.1969     1010,3 12,4           9,9 16,6   3,1
22.08.1969     1010,9 10,4           9,2 15,2   0,0
23.08.1969     1009,3 9,6           7,5 13,4   3,4
24.08.1969     1012,2 11,0           4,0 14,5   0,6
25.08.1969     1013,3 10,2           8,5 15,4   1,3
26.08.1969     1008,2 8,9           7,6 12,4   7,8
27.08.1969     1007,1 9,4           7,0 11,6   10,9
28.08.1969     1006,3 8,9           7,5 11,3   9,5
29.08.1969     1009,0 10,1           8,6 14,0   11,5
30.08.1969     1016,2 11,3           9,5 12,5   4,7
31.08.1969     1023,4 12,8           8,0 18,5   0,0
01.09.1969     1023,4 12,6           5,7 19,7   0,0
02.09.1969     1022,1 10,8           8,4 15,0   0,0
03.09.1969     1017,7 11,1           5,3 16,9   0,0
04.09.1969     1018,3 9,4           3,7 13,8   0,0
05.09.1969     1021,1 11,2           5,7 16,6   0,0
06.09.1969     1022,9 12,2           6,5 18,2   0,0
07.09.1969     1021,8 12,2           7,4 17,8   0,0
08.09.1969     1019,0 13,6           5,9 20,8   0,0
09.09.1969     1017,1 14,9           8,0 22,7   0,0
10.09.1969     1016,9 13,7           10,7 20,1   21,6
11.09.1969     1017,9 14,4           7,4 21,5   0,0
12.09.1969     1014,9 15,7           7,5 22,8   0,0
13.09.1969     1011,8 15,9           9,5 23,4   0,0
14.09.1969     1008,6 15,0           9,6 20,1   0,0
15.09.1969     1006,1 14,0           6,5 18,5   1,5
16.09.1969     1008,9 13,6           13,2 14,9   29,4
17.09.1969     1011,0 14,3           13,1 17,4   5,1
18.09.1969     1013,5 8,6           6,3 13,3   0,0
19.09.1969     1014,7 7,1           0,4 13,4   0,0
20.09.1969     1014,9 7,4           -1,1 16,0   0,0
21.09.1969     1017,5 10,4           1,8 14,3   0,0
22.09.1969     1021,3 13,0           10,9 15,5   3,4
23.09.1969     1027,7 9,8           6,8 16,1   0,1
24.09.1969     1027,3 10,0           1,3 17,7   0,0
25.09.1969     1023,7 13,2           5,7 19,5   0,0
26.09.1969     1023,0 13,3           8,5 16,5   0,0
27.09.1969     1019,1 9,2           7,0 15,1   2,7
28.09.1969     1021,8 5,9           -0,4 12,3   0,0
29.09.1969     1018,2 10,6           2,8 14,3   0,0
30.09.1969     1017,1 10,9           7,0 14,4   0,0
01.10.1969     1015,3 6,3           4,3 11,1   0,8
02.10.1969     1018,9 4,6           0,0 6,1   2,6
03.10.1969     1020,2 9,0           4,3 10,6   0,1
04.10.1969     1023,5 7,8           6,3 12,9   0,0
05.10.1969     1024,5 8,4           0,7 16,5   0,0
06.10.1969     1025,1 8,6           0,9 16,6   0,0
07.10.1969     1024,7 8,9           2,0 15,6   0,0
08.10.1969     1027,0 9,6           4,0 18,6   0,0
09.10.1969     1027,1 9,7           3,1 20,8   0,0
10.10.1969     1024,6 9,3           3,2 18,3   0,0
11.10.1969     1021,7 9,4           3,1 15,8   0,1
12.10.1969     1019,1 9,6           5,0 17,3   0,1
13.10.1969     1016,3 6,2           3,1 13,9   0,1
14.10.1969     1016,1 7,8           -1,0 18,6   0,0
15.10.1969     1022,9 10,2           0,9 16,3   0,1
16.10.1969     1026,5 9,4           6,1 15,8   0,1
17.10.1969     1023,9 10,0           4,5 16,8   0,0
18.10.1969     1018,3 9,5           3,7 17,7   0,0
19.10.1969     1014,7 9,8           4,2 17,2   0,0
20.10.1969     1015,7 9,4           3,4 19,1   0,0
21.10.1969     1019,8 9,8           1,3 19,6   0,0
22.10.1969     1020,9 10,2           3,5 19,5   0,0
23.10.1969     1019,4 9,9           4,8 15,3   1,5
24.10.1969     1018,5 8,1           6,7 10,0   5,8
25.10.1969     1024,6 6,3           2,8 7,4   0,0
26.10.1969     1029,9 7,4           6,0 8,0   0,4
27.10.1969     1032,1 8,5           6,5 10,3   0,0
28.10.1969     1026,2 9,2           7,1 12,4   0,0
29.10.1969     1017,4 5,9           4,6 8,7   0,1
30.10.1969     1016,7 4,5           2,8 5,3   2,1
31.10.1969     1019,9 6,1           4,4 6,7   0,3
01.11.1969     1018,6 6,1           5,6 8,1   0,0
02.11.1969     1017,8 7,0           3,5 9,8   0,0
03.11.1969     1017,5 8,0           6,3 9,1   0,0
04.11.1969     1011,9 9,1           8,2 10,6   4,7
05.11.1969     1018,9 1,7           0,1 8,4   0,0
06.11.1969     1023,3 -1,7           -5,1 5,0   0,0
07.11.1969     1007,8 -0,3           -5,6 2,9   12,7
08.11.1969     992,2 6,6           0,0 7,4   9,0
09.11.1969     990,6 5,8           2,6 8,3   23,3
10.11.1969     1003,5 5,6           3,0 6,7   2,3
11.11.1969     1008,7 9,0           5,4 12,9   0,5
12.11.1969     1003,3 9,7           8,1 11,8   3,0
13.11.1969     1005,5 8,5           5,3 9,4   0,1
14.11.1969     1007,3 5,5           3,8 7,0   0,1
15.11.1969     1009,7 5,4           0,6 8,9   0,3
16.11.1969     1013,9 4,8           1,9 6,4   0,0
17.11.1969     1006,9 4,9           2,6 10,6   0,4
18.11.1969     1012,9 1,1           0,2 3,9   0,7
19.11.1969     1011,0 2,3           -1,1 3,8   2,5
20.11.1969     1011,0 5,6           3,8 7,2   0,7
21.11.1969     1012,3 4,7           2,6 8,3   0,0
22.11.1969     1008,9 5,0           1,6 9,3   0,0
23.11.1969     1006,7 2,7           0,0 7,4   0,1
24.11.1969     993,7 -0,4           -1,6 2,5   6,0
25.11.1969     996,5 -1,6           -3,7 -0,2   5,3
26.11.1969     995,8 -2,7           -3,6 -1,8   3,6
27.11.1969     1010,7 -4,1           -6,6 -2,9   0,3
28.11.1969     1003,9 -1,0           -3,2 0,8   2,0
29.11.1969     1008,9 -2,7           -3,3 -1,0   0,3
30.11.1969     1020,1 -3,6           -4,6 -2,0   0,1
01.12.1969     1023,8 -9,4           -11,2 -4,0   0,1
02.12.1969     1015,8 -6,3           -12,5 -5,5   0,6
03.12.1969     1000,3 -1,8           -5,5 -1,3   1,9
04.12.1969     1001,8 -5,8           -7,9 -0,4   0,0
05.12.1969     1009,3 -9,9           -11,5 -6,8   0,1
06.12.1969     1009,1 -6,8           -12,5 -5,1   0,0
07.12.1969     1012,5 -6,9           -8,0 -5,7   0,0
08.12.1969     1015,5 -8,3           -8,7 -7,0   0,2
09.12.1969     1024,6 -6,7           -9,1 -6,0   0,0
10.12.1969     1022,6 -5,8           -6,5 -5,6   0,0
11.12.1969     1017,8 -2,9           -6,0 -2,2   0,2
12.12.1969     1018,6 -1,1           -2,3 -0,2   0,0
13.12.1969     1020,2 -2,8           -3,1 -1,1   0,0
14.12.1969     1016,1 -4,2           -6,2 -3,1   0,0
15.12.1969     996,9 -2,8           -5,5 -1,0   1,1
16.12.1969     1002,1 -4,8           -8,0 -0,8   2,0
17.12.1969     1009,5 -6,6           -9,0 -5,3   2,4
18.12.1969     1005,7 -2,2           -9,2 -4,8   4,6
19.12.1969     1015,8 -13,5           -14,4 -9,2   0,4
20.12.1969     1020,1 -16,6           -19,0 -13,4   0,0
21.12.1969     1022,6 -19,3           -25,4 -13,6   0,0
22.12.1969     1013,8 -11,0           -19,5 -9,1   0,0
23.12.1969     1013,4 -7,2           -11,9 -5,0   2,0
24.12.1969     1016,3 -3,4           -6,5 -0,5   0,1
25.12.1969     1011,1 -3,6           -8,1 -1,3   0,0
26.12.1969     1014,2 -6,7           -8,3 -3,6   0,0
27.12.1969     1019,4 -7,6           -9,2 -5,3   0,0
28.12.1969     1012,3 -6,1           -10,0 -4,5   0,0
29.12.1969     1007,3 -9,5           -13,9 -3,4   0,0
30.12.1969     1005,4 -8,9           -16,0 -7,6   0,0
31.12.1969     1003,1 -11,4           -13,6 -6,8   0,2